createdAt,value
2023-03-31T00:01:57.917Z,13.15
2023-03-31T00:04:28.700Z,12.27
2023-03-31T00:07:11.962Z,12.75
2023-03-31T00:09:50.720Z,12.70
2023-03-31T00:12:25.341Z,11.25
2023-03-31T00:14:52.371Z,14.02
2023-03-31T00:17:20.575Z,12.30
2023-03-31T00:19:49.955Z,12.85
2023-03-31T00:22:22.635Z,12.73
2023-03-31T00:24:49.367Z,10.98
2023-03-31T00:27:16.591Z,13.65
2023-03-31T00:29:43.488Z,14.07
2023-03-31T00:32:14.666Z,12.88
2023-03-31T00:34:46.277Z,11.48
2023-03-31T00:37:14.809Z,11.23
2023-03-31T00:39:44.718Z,10.38
2023-03-31T00:42:16.855Z,11.10
2023-03-31T00:45:14.599Z,13.13
2023-03-31T00:47:54.325Z,12.02
2023-03-31T00:50:32.770Z,10.35
2023-03-31T00:53:10.846Z,11.40
2023-03-31T00:55:52.674Z,12.43
2023-03-31T00:58:30.612Z,15.73
2023-03-31T01:01:04.808Z,13.82
2023-03-31T01:06:10.486Z,15.25
2023-03-31T01:08:56.760Z,16.23
2023-03-31T01:11:30.929Z,18.45
2023-03-31T01:13:59.222Z,20.20
2023-03-31T01:16:26.060Z,18.85
2023-03-31T01:18:53.419Z,17.35
2023-03-31T01:22:08.645Z,14.82
2023-03-31T01:25:30.292Z,17.02
2023-03-31T01:28:38.374Z,16.65
2023-03-31T01:31:32.756Z,13.68
2023-03-31T01:34:32.505Z,13.30
2023-03-31T01:37:33.085Z,14.23
2023-03-31T01:41:12.126Z,12.55
2023-03-31T01:44:17.289Z,13.88
2023-03-31T01:47:32.501Z,12.93
2023-03-31T01:50:27.939Z,14.05
2023-03-31T01:54:21.932Z,13.43
2023-03-31T01:57:21.039Z,13.82
2023-03-31T02:00:19.492Z,14.80
2023-03-31T02:03:06.135Z,14.65
2023-03-31T02:05:46.861Z,13.93
2023-03-31T02:08:29.316Z,15.20
2023-03-31T02:10:59.816Z,17.02
2023-03-31T02:13:30.593Z,17.13
2023-03-31T02:16:14.421Z,17.17
2023-03-31T02:18:48.230Z,17.17
2023-03-31T02:21:17.061Z,15.27
2023-03-31T02:23:52.369Z,16.90
2023-03-31T02:26:37.928Z,16.48
2023-03-31T02:29:09.566Z,16.05
2023-03-31T02:32:18.673Z,16.60
2023-03-31T02:34:45.841Z,15.40
2023-03-31T02:37:13.844Z,16.05
2023-03-31T02:39:50.083Z,16.65
2023-03-31T02:42:18.384Z,13.18
2023-03-31T02:44:45.804Z,16.98
2023-03-31T02:47:18.913Z,16.33
2023-03-31T02:49:59.628Z,16.67
2023-03-31T02:53:11.023Z,15.55
2023-03-31T02:56:38.138Z,14.68
2023-03-31T02:59:38.746Z,17.05
2023-03-31T03:03:30.883Z,14.55
2023-03-31T03:06:23.634Z,14.38
2023-03-31T03:09:23.957Z,14.30
2023-03-31T03:12:46.629Z,20.27
2023-03-31T03:15:30.694Z,16.77
2023-03-31T03:18:01.589Z,14.38
2023-03-31T03:20:28.475Z,17.70
2023-03-31T03:22:55.540Z,21.75
2023-03-31T03:25:26.222Z,16.27
2023-03-31T03:27:57.750Z,19.15
2023-03-31T03:30:24.780Z,17.13
2023-03-31T03:32:51.631Z,18.15
2023-03-31T03:35:18.492Z,17.02
2023-03-31T03:37:45.576Z,18.38
2023-03-31T03:40:12.820Z,14.50
2023-03-31T03:42:45.548Z,17.92
2023-03-31T03:45:12.261Z,14.48
2023-03-31T03:47:45.244Z,14.77
2023-03-31T03:50:15.834Z,17.83
2023-03-31T03:52:43.308Z,17.35
2023-03-31T03:55:14.136Z,20.35
2023-03-31T03:57:43.961Z,17.20
2023-03-31T04:00:15.067Z,14.38
2023-03-31T04:02:44.761Z,17.02
2023-03-31T04:05:11.593Z,18.20
2023-03-31T04:07:38.261Z,17.33
2023-03-31T04:10:06.087Z,16.38
2023-03-31T04:12:36.025Z,14.98
2023-03-31T04:15:03.204Z,15.57
2023-03-31T04:17:33.340Z,14.73
2023-03-31T04:20:11.648Z,13.25
2023-03-31T04:22:47.358Z,13.25
2023-03-31T04:25:18.045Z,12.45
2023-03-31T04:27:54.673Z,12.23
2023-03-31T04:30:42.144Z,12.02
2023-03-31T04:33:15.586Z,11.38
2023-03-31T04:35:52.650Z,12.40
2023-03-31T04:38:24.512Z,9.88
2023-03-31T04:40:56.409Z,10.45
2023-03-31T04:43:23.677Z,10.60
2023-03-31T04:45:51.235Z,9.25
2023-03-31T04:48:17.945Z,10.23
2023-03-31T04:50:47.045Z,10.60
2023-03-31T04:53:13.754Z,9.35
2023-03-31T04:55:46.264Z,9.63
2023-03-31T04:58:13.047Z,9.90
2023-03-31T05:00:42.136Z,9.95
2023-03-31T05:03:12.423Z,9.02
2023-03-31T05:05:46.782Z,9.20
2023-03-31T05:10:46.061Z,9.32
2023-03-31T05:13:12.643Z,8.60
2023-03-31T05:15:53.000Z,9.38
2023-03-31T05:18:19.707Z,9.90
2023-03-31T05:20:46.470Z,11.52
2023-03-31T05:23:13.954Z,13.23
2023-03-31T05:25:47.836Z,10.95
2023-03-31T05:28:14.521Z,8.90
2023-03-31T05:30:46.453Z,12.13
2023-03-31T05:33:13.136Z,12.38
2023-03-31T05:35:42.598Z,11.73
2023-03-31T05:38:12.157Z,10.13
2023-03-31T05:40:38.845Z,13.90
2023-03-31T05:43:05.842Z,11.25
2023-03-31T05:45:32.529Z,11.98
2023-03-31T05:47:59.200Z,11.45
2023-03-31T05:50:25.991Z,11.45
2023-03-31T05:52:55.770Z,12.80
2023-03-31T05:55:25.356Z,12.30
2023-03-31T05:57:52.180Z,13.68
2023-03-31T06:00:19.644Z,11.85
2023-03-31T06:02:49.146Z,11.65
2023-03-31T06:05:16.071Z,10.98
2023-03-31T06:07:45.264Z,11.95
2023-03-31T06:10:18.291Z,13.13
2023-03-31T06:12:45.014Z,11.30
2023-03-31T06:15:14.737Z,11.60
2023-03-31T06:17:44.529Z,10.77
2023-03-31T06:20:24.641Z,11.45
2023-03-31T06:22:54.794Z,11.35
2023-03-31T06:25:23.992Z,9.45
2023-03-31T06:27:56.178Z,10.68
2023-03-31T06:30:25.829Z,9.15
2023-03-31T06:32:52.704Z,11.88
2023-03-31T06:35:19.483Z,10.27
2023-03-31T06:37:46.694Z,10.63
2023-03-31T06:40:19.348Z,10.40
2023-03-31T06:42:45.992Z,10.52
2023-03-31T06:45:20.548Z,11.48
2023-03-31T06:47:47.751Z,13.55
2023-03-31T06:50:21.306Z,13.60
2023-03-31T06:52:48.429Z,13.63
2023-03-31T06:55:23.863Z,13.88
2023-03-31T06:57:53.657Z,15.27
2023-03-31T07:00:22.974Z,13.52
2023-03-31T07:02:51.838Z,16.33
2023-03-31T07:05:19.541Z,12.15
2023-03-31T07:07:46.591Z,14.52
2023-03-31T07:10:16.196Z,14.27
2023-03-31T07:12:46.167Z,16.30
2023-03-31T07:15:15.311Z,12.52
2023-03-31T07:17:43.040Z,14.55
2023-03-31T07:20:18.785Z,14.02
2023-03-31T07:22:48.865Z,16.23
2023-03-31T07:25:24.266Z,17.58
2023-03-31T07:27:51.181Z,19.17
2023-03-31T07:30:20.751Z,19.67
2023-03-31T07:32:54.112Z,14.68
2023-03-31T07:35:25.529Z,14.50
2023-03-31T07:37:55.351Z,14.50
2023-03-31T07:40:28.040Z,14.48
2023-03-31T07:42:57.372Z,13.77
2023-03-31T07:45:29.040Z,15.55
2023-03-31T07:47:58.807Z,14.05
2023-03-31T07:50:26.145Z,13.50
2023-03-31T07:52:53.066Z,13.63
2023-03-31T07:55:20.820Z,13.48
2023-03-31T07:57:47.730Z,17.70
2023-03-31T08:00:18.681Z,15.40
2023-03-31T08:02:46.115Z,14.45
2023-03-31T08:05:20.800Z,14.38
2023-03-31T08:07:54.238Z,14.07
2023-03-31T08:10:27.139Z,13.13
2023-03-31T08:12:54.259Z,13.48
2023-03-31T08:15:21.486Z,12.65
2023-03-31T08:17:48.308Z,12.48
2023-03-31T08:20:18.687Z,14.00
2023-03-31T08:22:45.779Z,11.60
2023-03-31T08:25:12.578Z,12.95
2023-03-31T08:27:51.061Z,13.10
2023-03-31T08:30:20.618Z,12.30
2023-03-31T08:32:47.630Z,11.55
2023-03-31T08:35:19.659Z,11.48
2023-03-31T08:37:47.642Z,12.50
2023-03-31T08:40:26.483Z,11.48
2023-03-31T08:43:29.230Z,10.20
2023-03-31T08:45:56.396Z,10.93
2023-03-31T08:48:45.433Z,9.63
2023-03-31T08:51:46.278Z,10.35
2023-03-31T08:54:34.223Z,9.88
2023-03-31T08:57:18.172Z,11.20
2023-03-31T08:59:46.562Z,11.25
2023-03-31T09:02:52.926Z,10.70
2023-03-31T09:06:04.466Z,10.23
2023-03-31T09:08:44.741Z,10.07
2023-03-31T09:11:51.801Z,8.73
2023-03-31T09:14:55.111Z,10.38
2023-03-31T09:17:34.933Z,9.38
2023-03-31T09:20:27.062Z,10.25
2023-03-31T09:23:12.162Z,8.85
2023-03-31T09:25:44.638Z,10.25
2023-03-31T09:28:29.887Z,9.80
2023-03-31T09:31:02.356Z,10.55
2023-03-31T09:33:38.875Z,10.82
2023-03-31T09:36:24.498Z,10.07
2023-03-31T09:38:51.720Z,9.30
2023-03-31T09:41:21.866Z,9.63
2023-03-31T09:43:50.043Z,10.63
2023-03-31T09:46:33.646Z,11.43
2023-03-31T09:49:13.185Z,10.57
2023-03-31T09:52:00.622Z,11.27
2023-03-31T09:54:51.717Z,10.98
2023-03-31T09:57:43.412Z,12.25
2023-03-31T10:00:21.654Z,10.85
2023-03-31T10:03:07.554Z,10.23
2023-03-31T10:05:54.248Z,10.23
2023-03-31T10:09:02.394Z,9.50
2023-03-31T10:11:32.680Z,9.82
2023-03-31T10:14:14.238Z,9.90
2023-03-31T10:16:53.758Z,11.27
2023-03-31T10:19:29.737Z,10.48
2023-03-31T10:22:16.093Z,11.55
2023-03-31T10:24:48.288Z,13.80
2023-03-31T10:27:28.454Z,11.75
2023-03-31T10:30:00.278Z,14.35
2023-03-31T10:32:29.824Z,14.32
2023-03-31T10:35:04.334Z,13.70
2023-03-31T10:37:31.887Z,11.82
2023-03-31T10:40:25.693Z,13.30
2023-03-31T10:43:14.449Z,12.88
2023-03-31T10:46:04.146Z,12.30
2023-03-31T10:48:43.635Z,11.85
2023-03-31T10:51:26.848Z,12.10
2023-03-31T10:54:03.337Z,11.55
2023-03-31T10:56:38.162Z,12.45
2023-03-31T10:59:38.205Z,12.68
2023-03-31T11:03:08.375Z,13.52
2023-03-31T11:06:39.052Z,12.70
2023-03-31T11:09:35.830Z,14.25
2023-03-31T11:12:14.394Z,13.30
2023-03-31T11:14:54.812Z,12.15
2023-03-31T11:17:54.943Z,13.75
2023-03-31T11:21:23.267Z,12.77
2023-03-31T11:24:33.297Z,13.70
2023-03-31T11:27:43.538Z,13.30
2023-03-31T11:30:38.269Z,12.35
2023-03-31T11:33:43.534Z,10.85
2023-03-31T11:36:32.503Z,10.82
2023-03-31T11:39:31.988Z,11.98
2023-03-31T11:42:14.489Z,10.02
2023-03-31T11:45:15.469Z,9.88
2023-03-31T11:47:52.195Z,9.93
2023-03-31T11:50:38.408Z,8.82
2023-03-31T11:53:23.705Z,8.27
2023-03-31T11:55:55.823Z,8.98
2023-03-31T11:58:52.768Z,8.02
2023-03-31T12:01:51.833Z,8.48
2023-03-31T12:04:44.463Z,8.75
2023-03-31T12:07:32.407Z,10.02
2023-03-31T12:10:23.493Z,9.73
2023-03-31T12:13:33.045Z,8.85
2023-03-31T12:16:19.523Z,9.18
2023-03-31T12:19:03.151Z,9.77
2023-03-31T12:21:34.253Z,10.13
2023-03-31T12:24:01.001Z,8.45
2023-03-31T12:26:49.059Z,9.20
2023-03-31T12:29:36.355Z,9.38
2023-03-31T12:32:28.827Z,8.00
2023-03-31T12:35:07.357Z,7.47
2023-03-31T12:38:25.333Z,7.07
2023-03-31T12:41:43.636Z,7.45
2023-03-31T12:44:46.484Z,6.03
2023-03-31T12:48:12.939Z,6.43
2023-03-31T12:51:20.341Z,6.60
2023-03-31T12:54:49.076Z,7.47
2023-03-31T12:57:27.385Z,6.68
2023-03-31T13:00:11.749Z,5.82
2023-03-31T13:02:44.357Z,5.25
2023-03-31T13:05:41.656Z,5.97
2023-03-31T13:08:10.456Z,5.28
2023-03-31T13:10:59.689Z,4.60
2023-03-31T13:13:27.010Z,4.90
2023-03-31T13:16:00.357Z,4.70
2023-03-31T13:18:34.818Z,5.17
2023-03-31T13:21:06.362Z,5.07
2023-03-31T13:23:43.518Z,5.05
2023-03-31T13:26:47.405Z,4.40
2023-03-31T13:29:20.526Z,4.03
2023-03-31T13:32:26.905Z,4.10
2023-03-31T13:35:20.351Z,4.07
2023-03-31T13:38:29.237Z,4.47
2023-03-31T13:41:19.829Z,3.67
2023-03-31T13:44:32.862Z,4.10
2023-03-31T13:47:29.918Z,4.03
2023-03-31T13:50:58.536Z,4.28
2023-03-31T13:54:27.380Z,3.97
2023-03-31T13:58:05.446Z,3.97
2023-03-31T14:00:49.988Z,3.92
2023-03-31T14:03:47.348Z,4.03
2023-03-31T14:06:56.384Z,4.65
2023-03-31T14:09:36.891Z,3.97
2023-03-31T14:12:37.010Z,4.32
2023-03-31T14:15:07.218Z,3.95
2023-03-31T14:17:43.765Z,4.70
2023-03-31T14:20:45.278Z,3.75
2023-03-31T14:24:02.967Z,3.97
2023-03-31T14:26:55.909Z,4.55
2023-03-31T14:30:13.032Z,3.70
2023-03-31T14:33:10.564Z,3.78
2023-03-31T14:36:42.178Z,3.67
2023-03-31T14:39:14.505Z,3.33
2023-03-31T14:41:44.732Z,3.10
2023-03-31T14:44:16.122Z,3.22
2023-03-31T14:46:48.351Z,4.03
2023-03-31T15:04:41.524Z,2.95
2023-03-31T17:17:05.388Z,5.97
2023-03-31T18:04:27.228Z,8.50
2023-03-31T18:06:54.760Z,7.35
2023-03-31T18:09:22.017Z,7.90
2023-03-31T18:11:55.719Z,8.20
2023-03-31T18:14:22.549Z,8.68
2023-03-31T18:16:49.390Z,7.93
2023-03-31T18:19:19.277Z,8.07
2023-03-31T18:21:51.854Z,5.85
2023-03-31T18:24:20.267Z,7.18
2023-03-31T18:26:47.114Z,8.73
2023-03-31T19:53:01.521Z,20.95
2023-03-31T20:01:09.177Z,19.77
2023-03-31T22:14:03.206Z,28.38
2023-03-31T22:16:34.688Z,24.73
2023-03-31T22:19:08.149Z,27.13
2023-03-31T22:21:35.024Z,26.30
2023-03-31T22:24:11.099Z,24.30
2023-03-31T22:26:45.465Z,23.90
2023-03-31T22:29:16.977Z,26.88
2023-03-31T22:31:52.387Z,26.05
2023-03-31T22:34:19.583Z,25.85
2023-03-31T22:36:49.688Z,20.95
2023-03-31T22:39:17.543Z,22.13
2023-03-31T22:42:02.136Z,24.20
2023-03-31T22:47:07.266Z,20.60
2023-03-31T22:49:37.025Z,21.52
2023-03-31T22:52:04.644Z,19.83
2023-03-31T22:54:35.713Z,17.40
2023-03-31T22:57:02.542Z,19.20
2023-03-31T22:59:29.284Z,15.43
2023-03-31T23:02:07.024Z,17.05
2023-03-31T23:04:33.889Z,17.95
2023-03-31T23:07:07.725Z,20.98
2023-03-31T23:09:34.712Z,20.67
2023-03-31T23:12:01.546Z,24.60
2023-03-31T23:14:28.719Z,22.27
2023-03-31T23:17:02.718Z,23.08
2023-03-31T23:19:49.063Z,26.05
2023-03-31T23:22:16.092Z,23.88
2023-03-31T23:24:50.928Z,25.50
2023-03-31T23:27:21.250Z,25.15
2023-03-31T23:29:51.240Z,24.38
2023-03-31T23:32:25.184Z,22.17
2023-03-31T23:34:52.099Z,20.02
2023-03-31T23:37:21.205Z,19.48
2023-03-31T23:39:48.191Z,20.23
2023-03-31T23:42:20.518Z,20.00
2023-03-31T23:44:47.493Z,19.27
2023-03-31T23:50:07.570Z,18.15
2023-03-31T23:52:36.053Z,18.08
2023-03-31T23:55:06.707Z,16.40
2023-03-31T23:57:33.684Z,15.52
